sensor_id;sensor_type;location;lat;lon;timestamp;temperature;humidity
51739;DHT22;37815;52.692;6.226;2023-12-29T00:00:48;10.90;99.90
51739;DHT22;37815;52.692;6.226;2023-12-29T00:05:49;11.00;99.90
51739;DHT22;37815;52.692;6.226;2023-12-29T00:10:49;10.90;99.90
51739;DHT22;37815;52.692;6.226;2023-12-29T00:15:56;10.90;99.90
51739;DHT22;37815;52.692;6.226;2023-12-29T00:20:57;10.90;99.90
51739;DHT22;37815;52.692;6.226;2023-12-29T00:25:57;11.00;99.90
51739;DHT22;37815;52.692;6.226;2023-12-29T00:30:58;10.90;99.90
51739;DHT22;37815;52.692;6.226;2023-12-29T00:35:58;10.90;99.90
51739;DHT22;37815;52.692;6.226;2023-12-29T00:40:59;10.90;99.90
51739;DHT22;37815;52.692;6.226;2023-12-29T00:46:04;10.90;99.90
51739;DHT22;37815;52.692;6.226;2023-12-29T00:51:05;10.90;99.90
51739;DHT22;37815;52.692;6.226;2023-12-29T00:56:12;10.90;99.90
51739;DHT22;37815;52.692;6.226;2023-12-29T01:01:13;10.90;99.90
51739;DHT22;37815;52.692;6.226;2023-12-29T01:06:13;10.90;99.90
51739;DHT22;37815;52.692;6.226;2023-12-29T01:11:14;10.90;99.90
51739;DHT22;37815;52.692;6.226;2023-12-29T01:16:14;10.90;99.90
51739;DHT22;37815;52.692;6.226;2023-12-29T01:21:15;10.90;99.90
51739;DHT22;37815;52.692;6.226;2023-12-29T01:26:15;10.90;99.90
51739;DHT22;37815;52.692;6.226;2023-12-29T01:31:16;10.90;99.90
51739;DHT22;37815;52.692;6.226;2023-12-29T01:36:18;10.90;99.90
51739;DHT22;37815;52.692;6.226;2023-12-29T01:41:22;10.90;99.90
51739;DHT22;37815;52.692;6.226;2023-12-29T01:46:27;10.90;99.90
51739;DHT22;37815;52.692;6.226;2023-12-29T01:51:29;10.80;99.90
51739;DHT22;37815;52.692;6.226;2023-12-29T01:56:30;10.80;99.90
51739;DHT22;37815;52.692;6.226;2023-12-29T02:01:31;10.80;99.90
51739;DHT22;37815;52.692;6.226;2023-12-29T02:06:34;10.80;99.90
51739;DHT22;37815;52.692;6.226;2023-12-29T02:11:35;10.80;99.90
51739;DHT22;37815;52.692;6.226;2023-12-29T02:22:07;10.80;99.90
51739;DHT22;37815;52.692;6.226;2023-12-29T02:27:43;10.80;99.90
51739;DHT22;37815;52.692;6.226;2023-12-29T02:32:46;10.80;99.90
51739;DHT22;37815;52.692;6.226;2023-12-29T02:37:48;10.80;99.90
51739;DHT22;37815;52.692;6.226;2023-12-29T02:42:49;10.80;99.90
51739;DHT22;37815;52.692;6.226;2023-12-29T02:47:50;10.80;99.90
51739;DHT22;37815;52.692;6.226;2023-12-29T02:52:51;10.80;99.90
51739;DHT22;37815;52.692;6.226;2023-12-29T02:57:51;10.80;99.90
51739;DHT22;37815;52.692;6.226;2023-12-29T03:02:52;10.80;99.90
51739;DHT22;37815;52.692;6.226;2023-12-29T03:07:52;10.80;99.90
51739;DHT22;37815;52.692;6.226;2023-12-29T03:12:53;10.80;99.90
51739;DHT22;37815;52.692;6.226;2023-12-29T03:17:53;10.80;99.90
51739;DHT22;37815;52.692;6.226;2023-12-29T03:22:54;10.80;99.90
51739;DHT22;37815;52.692;6.226;2023-12-29T03:27:55;10.80;99.90
51739;DHT22;37815;52.692;6.226;2023-12-29T03:32:56;10.80;99.90
51739;DHT22;37815;52.692;6.226;2023-12-29T03:37:56;10.80;99.90
51739;DHT22;37815;52.692;6.226;2023-12-29T03:42:57;10.80;99.90
51739;DHT22;37815;52.692;6.226;2023-12-29T03:47:58;10.80;99.90
51739;DHT22;37815;52.692;6.226;2023-12-29T03:52:58;10.30;99.90
51739;DHT22;37815;52.692;6.226;2023-12-29T03:57:59;10.80;99.90
51739;DHT22;37815;52.692;6.226;2023-12-29T04:03:00;10.80;99.90
51739;DHT22;37815;52.692;6.226;2023-12-29T04:08:01;10.70;99.90
51739;DHT22;37815;52.692;6.226;2023-12-29T04:13:02;10.70;99.90
51739;DHT22;37815;52.692;6.226;2023-12-29T04:18:02;10.70;99.90
51739;DHT22;37815;52.692;6.226;2023-12-29T04:23:05;10.70;99.90
51739;DHT22;37815;52.692;6.226;2023-12-29T04:28:09;10.70;99.90
51739;DHT22;37815;52.692;6.226;2023-12-29T04:33:09;10.70;99.90
51739;DHT22;37815;52.692;6.226;2023-12-29T04:38:10;10.70;99.90
51739;DHT22;37815;52.692;6.226;2023-12-29T04:43:10;10.70;99.90
51739;DHT22;37815;52.692;6.226;2023-12-29T04:48:11;10.70;99.90
51739;DHT22;37815;52.692;6.226;2023-12-29T04:53:12;10.70;99.90
51739;DHT22;37815;52.692;6.226;2023-12-29T04:58:13;10.70;99.90
51739;DHT22;37815;52.692;6.226;2023-12-29T05:03:13;10.70;99.90
51739;DHT22;37815;52.692;6.226;2023-12-29T05:08:14;10.70;99.90
51739;DHT22;37815;52.692;6.226;2023-12-29T05:13:14;10.70;99.90
51739;DHT22;37815;52.692;6.226;2023-12-29T05:18:15;10.70;99.90
51739;DHT22;37815;52.692;6.226;2023-12-29T05:23:15;10.70;99.90
51739;DHT22;37815;52.692;6.226;2023-12-29T05:28:16;10.70;99.90
51739;DHT22;37815;52.692;6.226;2023-12-29T05:33:16;10.70;99.90
51739;DHT22;37815;52.692;6.226;2023-12-29T05:38:17;10.70;99.90
51739;DHT22;37815;52.692;6.226;2023-12-29T05:43:18;10.70;99.90
51739;DHT22;37815;52.692;6.226;2023-12-29T05:48:19;10.70;99.90
51739;DHT22;37815;52.692;6.226;2023-12-29T05:53:19;10.70;99.90
51739;DHT22;37815;52.692;6.226;2023-12-29T05:58:20;10.70;99.90
51739;DHT22;37815;52.692;6.226;2023-12-29T06:03:21;10.70;99.90
51739;DHT22;37815;52.692;6.226;2023-12-29T06:08:21;10.70;99.90
51739;DHT22;37815;52.692;6.226;2023-12-29T06:13:22;10.70;99.90
51739;DHT22;37815;52.692;6.226;2023-12-29T06:18:24;10.70;99.90
51739;DHT22;37815;52.692;6.226;2023-12-29T06:23:24;10.70;99.90
51739;DHT22;37815;52.692;6.226;2023-12-29T06:28:28;10.70;99.90
51739;DHT22;37815;52.692;6.226;2023-12-29T06:33:28;10.70;99.90
51739;DHT22;37815;52.692;6.226;2023-12-29T06:38:29;10.70;99.90
51739;DHT22;37815;52.692;6.226;2023-12-29T06:43:30;10.70;99.90
51739;DHT22;37815;52.692;6.226;2023-12-29T06:48:31;10.70;99.90
51739;DHT22;37815;52.692;6.226;2023-12-29T06:53:32;10.70;99.90
51739;DHT22;37815;52.692;6.226;2023-12-29T06:58:32;10.70;99.90
51739;DHT22;37815;52.692;6.226;2023-12-29T07:03:33;10.70;99.90
51739;DHT22;37815;52.692;6.226;2023-12-29T07:08:33;10.70;99.90
51739;DHT22;37815;52.692;6.226;2023-12-29T07:13:36;10.70;99.90
51739;DHT22;37815;52.692;6.226;2023-12-29T07:18:37;10.70;99.90
51739;DHT22;37815;52.692;6.226;2023-12-29T07:23:38;10.70;99.90
51739;DHT22;37815;52.692;6.226;2023-12-29T07:28:39;10.70;99.90
51739;DHT22;37815;52.692;6.226;2023-12-29T07:33:39;10.70;99.90
51739;DHT22;37815;52.692;6.226;2023-12-29T07:38:40;10.70;99.90
51739;DHT22;37815;52.692;6.226;2023-12-29T07:43:41;10.70;99.90
51739;DHT22;37815;52.692;6.226;2023-12-29T07:48:41;10.70;99.90
51739;DHT22;37815;52.692;6.226;2023-12-29T07:53:42;10.70;99.90
51739;DHT22;37815;52.692;6.226;2023-12-29T07:58:42;10.70;99.90
51739;DHT22;37815;52.692;6.226;2023-12-29T08:03:43;10.70;99.90
51739;DHT22;37815;52.692;6.226;2023-12-29T08:08:44;10.70;99.90
51739;DHT22;37815;52.692;6.226;2023-12-29T08:13:47;10.70;99.90
51739;DHT22;37815;52.692;6.226;2023-12-29T08:18:49;10.70;99.90
51739;DHT22;37815;52.692;6.226;2023-12-29T08:23:50;10.70;99.90
51739;DHT22;37815;52.692;6.226;2023-12-29T08:28:51;10.70;99.90
51739;DHT22;37815;52.692;6.226;2023-12-29T08:33:52;10.70;99.90
51739;DHT22;37815;52.692;6.226;2023-12-29T08:38:52;10.70;99.90
51739;DHT22;37815;52.692;6.226;2023-12-29T08:43:53;10.70;99.90
51739;DHT22;37815;52.692;6.226;2023-12-29T08:48:54;10.70;99.90
51739;DHT22;37815;52.692;6.226;2023-12-29T08:53:55;10.70;99.90
51739;DHT22;37815;52.692;6.226;2023-12-29T08:58:56;10.70;99.90
51739;DHT22;37815;52.692;6.226;2023-12-29T09:03:56;10.70;99.90
51739;DHT22;37815;52.692;6.226;2023-12-29T09:08:57;10.70;99.90
51739;DHT22;37815;52.692;6.226;2023-12-29T09:13:58;10.70;99.90
51739;DHT22;37815;52.692;6.226;2023-12-29T09:18:59;10.70;99.90
51739;DHT22;37815;52.692;6.226;2023-12-29T09:23:59;10.70;99.90
51739;DHT22;37815;52.692;6.226;2023-12-29T09:29:00;10.70;99.90
51739;DHT22;37815;52.692;6.226;2023-12-29T09:34:00;10.70;99.90
51739;DHT22;37815;52.692;6.226;2023-12-29T09:39:01;10.70;99.90
51739;DHT22;37815;52.692;6.226;2023-12-29T09:44:04;10.70;99.90
51739;DHT22;37815;52.692;6.226;2023-12-29T09:49:08;10.70;99.90
51739;DHT22;37815;52.692;6.226;2023-12-29T09:54:09;10.70;99.90
51739;DHT22;37815;52.692;6.226;2023-12-29T09:59:11;10.70;99.90
51739;DHT22;37815;52.692;6.226;2023-12-29T10:04:13;10.70;99.90
51739;DHT22;37815;52.692;6.226;2023-12-29T10:09:16;10.70;99.90
51739;DHT22;37815;52.692;6.226;2023-12-29T10:14:48;10.70;99.90
51739;DHT22;37815;52.692;6.226;2023-12-29T10:20:02;10.70;99.90
51739;DHT22;37815;52.692;6.226;2023-12-29T10:25:07;10.60;99.90
51739;DHT22;37815;52.692;6.226;2023-12-29T10:30:10;10.70;99.90
51739;DHT22;37815;52.692;6.226;2023-12-29T10:35:11;10.60;99.90
51739;DHT22;37815;52.692;6.226;2023-12-29T10:40:19;10.60;99.90
51739;DHT22;37815;52.692;6.226;2023-12-29T10:45:20;10.60;99.90
51739;DHT22;37815;52.692;6.226;2023-12-29T10:50:21;10.70;99.90
51739;DHT22;37815;52.692;6.226;2023-12-29T10:55:23;10.60;99.90
51739;DHT22;37815;52.692;6.226;2023-12-29T11:00:29;10.60;99.90
51739;DHT22;37815;52.692;6.226;2023-12-29T11:05:30;10.60;99.90
51739;DHT22;37815;52.692;6.226;2023-12-29T11:10:31;10.60;99.90
51739;DHT22;37815;52.692;6.226;2023-12-29T11:15:32;10.70;99.90
51739;DHT22;37815;52.692;6.226;2023-12-29T11:20:34;10.70;99.90
51739;DHT22;37815;52.692;6.226;2023-12-29T11:25:36;10.70;99.90
51739;DHT22;37815;52.692;6.226;2023-12-29T11:30:37;10.70;99.90
51739;DHT22;37815;52.692;6.226;2023-12-29T11:35:44;10.70;99.90
51739;DHT22;37815;52.692;6.226;2023-12-29T11:41:05;10.70;99.90
51739;DHT22;37815;52.692;6.226;2023-12-29T11:46:40;10.70;99.90
51739;DHT22;37815;52.692;6.226;2023-12-29T11:51:46;10.70;99.90
51739;DHT22;37815;52.692;6.226;2023-12-29T11:56:49;10.70;99.90
51739;DHT22;37815;52.692;6.226;2023-12-29T12:01:51;10.70;99.90
51739;DHT22;37815;52.692;6.226;2023-12-29T12:06:52;10.70;99.90
51739;DHT22;37815;52.692;6.226;2023-12-29T12:11:53;10.70;99.90
51739;DHT22;37815;52.692;6.226;2023-12-29T12:16:53;10.70;99.90
51739;DHT22;37815;52.692;6.226;2023-12-29T12:21:54;10.80;99.90
51739;DHT22;37815;52.692;6.226;2023-12-29T12:26:57;10.80;99.90
51739;DHT22;37815;52.692;6.226;2023-12-29T12:31:59;10.80;99.90
51739;DHT22;37815;52.692;6.226;2023-12-29T12:37:01;10.80;99.90
51739;DHT22;37815;52.692;6.226;2023-12-29T12:42:04;10.80;99.90
51739;DHT22;37815;52.692;6.226;2023-12-29T12:47:09;10.80;99.90
51739;DHT22;37815;52.692;6.226;2023-12-29T12:52:10;10.80;99.90
51739;DHT22;37815;52.692;6.226;2023-12-29T12:57:11;10.80;99.90
51739;DHT22;37815;52.692;6.226;2023-12-29T13:02:12;10.80;99.90
51739;DHT22;37815;52.692;6.226;2023-12-29T13:07:15;10.80;99.90
51739;DHT22;37815;52.692;6.226;2023-12-29T13:12:16;10.80;99.90
51739;DHT22;37815;52.692;6.226;2023-12-29T13:17:17;10.80;99.90
51739;DHT22;37815;52.692;6.226;2023-12-29T13:22:18;10.80;99.90
51739;DHT22;37815;52.692;6.226;2023-12-29T13:27:19;10.80;99.90
51739;DHT22;37815;52.692;6.226;2023-12-29T13:32:22;10.80;99.90
51739;DHT22;37815;52.692;6.226;2023-12-29T13:42:35;10.80;99.90
51739;DHT22;37815;52.692;6.226;2023-12-29T13:47:37;10.80;99.90
51739;DHT22;37815;52.692;6.226;2023-12-29T13:52:39;10.80;99.90
51739;DHT22;37815;52.692;6.226;2023-12-29T13:57:40;10.80;99.90
51739;DHT22;37815;52.692;6.226;2023-12-29T14:02:41;10.80;99.90
51739;DHT22;37815;52.692;6.226;2023-12-29T14:07:58;10.80;99.90
51739;DHT22;37815;52.692;6.226;2023-12-29T14:13:09;10.80;99.90
51739;DHT22;37815;52.692;6.226;2023-12-29T14:23:42;10.80;99.90
51739;DHT22;37815;52.692;6.226;2023-12-29T14:28:43;10.70;99.90
51739;DHT22;37815;52.692;6.226;2023-12-29T14:33:43;10.70;99.90
51739;DHT22;37815;52.692;6.226;2023-12-29T14:38:44;10.70;99.90
51739;DHT22;37815;52.692;6.226;2023-12-29T14:43:44;10.70;99.90
51739;DHT22;37815;52.692;6.226;2023-12-29T14:48:45;10.70;99.90
51739;DHT22;37815;52.692;6.226;2023-12-29T14:53:47;10.70;99.90
51739;DHT22;37815;52.692;6.226;2023-12-29T14:58:48;10.70;99.90
51739;DHT22;37815;52.692;6.226;2023-12-29T15:03:49;11.00;99.90
51739;DHT22;37815;52.692;6.226;2023-12-29T15:08:49;10.90;99.90
51739;DHT22;37815;52.692;6.226;2023-12-29T15:13:50;10.90;99.90
51739;DHT22;37815;52.692;6.226;2023-12-29T15:18:51;10.90;99.90
51739;DHT22;37815;52.692;6.226;2023-12-29T15:23:51;10.90;99.90
51739;DHT22;37815;52.692;6.226;2023-12-29T15:28:52;10.90;99.90
51739;DHT22;37815;52.692;6.226;2023-12-29T15:33:52;10.80;99.90
51739;DHT22;37815;52.692;6.226;2023-12-29T15:38:53;10.80;99.90
51739;DHT22;37815;52.692;6.226;2023-12-29T15:43:53;10.80;99.90
51739;DHT22;37815;52.692;6.226;2023-12-29T15:48:54;10.80;99.90
51739;DHT22;37815;52.692;6.226;2023-12-29T15:53:57;10.80;99.90
51739;DHT22;37815;52.692;6.226;2023-12-29T15:58:58;10.80;99.90
51739;DHT22;37815;52.692;6.226;2023-12-29T16:03:58;10.70;99.90
51739;DHT22;37815;52.692;6.226;2023-12-29T16:08:59;10.70;99.90
51739;DHT22;37815;52.692;6.226;2023-12-29T16:14:00;10.70;99.90
51739;DHT22;37815;52.692;6.226;2023-12-29T16:19:00;10.60;99.90
51739;DHT22;37815;52.692;6.226;2023-12-29T16:24:01;10.60;99.90
51739;DHT22;37815;52.692;6.226;2023-12-29T16:29:03;10.80;99.90
51739;DHT22;37815;52.692;6.226;2023-12-29T16:34:04;10.90;99.90
51739;DHT22;37815;52.692;6.226;2023-12-29T16:39:05;10.90;99.90
51739;DHT22;37815;52.692;6.226;2023-12-29T16:44:05;10.80;99.90
51739;DHT22;37815;52.692;6.226;2023-12-29T16:49:07;10.70;99.90
51739;DHT22;37815;52.692;6.226;2023-12-29T16:54:07;10.70;99.90
51739;DHT22;37815;52.692;6.226;2023-12-29T16:59:08;10.70;99.90
51739;DHT22;37815;52.692;6.226;2023-12-29T17:04:08;10.60;99.90
51739;DHT22;37815;52.692;6.226;2023-12-29T17:09:09;10.60;99.90
51739;DHT22;37815;52.692;6.226;2023-12-29T17:14:10;10.60;99.90
51739;DHT22;37815;52.692;6.226;2023-12-29T17:19:11;10.60;99.90
51739;DHT22;37815;52.692;6.226;2023-12-29T17:24:11;10.60;99.90
51739;DHT22;37815;52.692;6.226;2023-12-29T17:29:12;10.60;99.90
51739;DHT22;37815;52.692;6.226;2023-12-29T17:34:13;10.60;99.90
51739;DHT22;37815;52.692;6.226;2023-12-29T17:39:13;10.60;99.90
51739;DHT22;37815;52.692;6.226;2023-12-29T17:44:14;10.60;99.90
51739;DHT22;37815;52.692;6.226;2023-12-29T17:49:14;10.70;99.90
51739;DHT22;37815;52.692;6.226;2023-12-29T17:54:17;10.70;99.90
51739;DHT22;37815;52.692;6.226;2023-12-29T17:59:18;10.60;99.90
51739;DHT22;37815;52.692;6.226;2023-12-29T18:04:21;10.60;99.90
51739;DHT22;37815;52.692;6.226;2023-12-29T18:09:22;10.60;99.90
51739;DHT22;37815;52.692;6.226;2023-12-29T18:14:23;10.60;99.90
51739;DHT22;37815;52.692;6.226;2023-12-29T18:19:25;10.60;99.90
51739;DHT22;37815;52.692;6.226;2023-12-29T18:24:26;10.60;99.90
51739;DHT22;37815;52.692;6.226;2023-12-29T18:29:26;10.60;99.90
51739;DHT22;37815;52.692;6.226;2023-12-29T18:34:27;10.50;99.90
51739;DHT22;37815;52.692;6.226;2023-12-29T18:39:28;10.50;99.90
51739;DHT22;37815;52.692;6.226;2023-12-29T18:44:29;10.50;99.90
51739;DHT22;37815;52.692;6.226;2023-12-29T18:49:31;10.50;99.90
51739;DHT22;37815;52.692;6.226;2023-12-29T18:54:32;10.50;99.90
51739;DHT22;37815;52.692;6.226;2023-12-29T18:59:32;10.40;99.90
51739;DHT22;37815;52.692;6.226;2023-12-29T19:04:33;10.40;99.90
51739;DHT22;37815;52.692;6.226;2023-12-29T19:09:34;10.40;99.90
51739;DHT22;37815;52.692;6.226;2023-12-29T19:14:34;10.40;99.90
51739;DHT22;37815;52.692;6.226;2023-12-29T19:19:36;10.40;99.90
51739;DHT22;37815;52.692;6.226;2023-12-29T19:24:36;10.40;99.90
51739;DHT22;37815;52.692;6.226;2023-12-29T19:29:41;10.30;99.90
51739;DHT22;37815;52.692;6.226;2023-12-29T19:34:42;10.30;99.90
51739;DHT22;37815;52.692;6.226;2023-12-29T19:39:43;10.30;99.90
51739;DHT22;37815;52.692;6.226;2023-12-29T19:44:44;10.30;99.90
51739;DHT22;37815;52.692;6.226;2023-12-29T19:49:44;10.30;99.90
51739;DHT22;37815;52.692;6.226;2023-12-29T19:54:45;10.30;99.90
51739;DHT22;37815;52.692;6.226;2023-12-29T19:59:45;10.30;99.90
51739;DHT22;37815;52.692;6.226;2023-12-29T20:04:46;10.30;99.90
51739;DHT22;37815;52.692;6.226;2023-12-29T20:09:47;10.30;99.90
51739;DHT22;37815;52.692;6.226;2023-12-29T20:14:48;10.20;99.90
51739;DHT22;37815;52.692;6.226;2023-12-29T20:19:51;10.20;99.90
51739;DHT22;37815;52.692;6.226;2023-12-29T20:24:52;10.20;99.90
51739;DHT22;37815;52.692;6.226;2023-12-29T20:29:53;10.20;99.90
51739;DHT22;37815;52.692;6.226;2023-12-29T20:34:53;10.20;99.90
51739;DHT22;37815;52.692;6.226;2023-12-29T20:39:54;10.20;99.90
51739;DHT22;37815;52.692;6.226;2023-12-29T20:44:56;10.10;99.90
51739;DHT22;37815;52.692;6.226;2023-12-29T20:49:57;10.10;99.90
51739;DHT22;37815;52.692;6.226;2023-12-29T20:54:58;10.10;99.90
51739;DHT22;37815;52.692;6.226;2023-12-29T20:59:59;10.10;99.90
51739;DHT22;37815;52.692;6.226;2023-12-29T21:05:00;10.10;99.90
51739;DHT22;37815;52.692;6.226;2023-12-29T21:10:04;10.10;99.90
51739;DHT22;37815;52.692;6.226;2023-12-29T21:15:05;10.10;99.90
51739;DHT22;37815;52.692;6.226;2023-12-29T21:20:07;10.10;99.90
51739;DHT22;37815;52.692;6.226;2023-12-29T21:25:08;10.10;99.90
51739;DHT22;37815;52.692;6.226;2023-12-29T21:30:08;10.10;99.90
51739;DHT22;37815;52.692;6.226;2023-12-29T21:35:12;10.00;99.90
51739;DHT22;37815;52.692;6.226;2023-12-29T21:40:12;10.00;99.90
51739;DHT22;37815;52.692;6.226;2023-12-29T21:45:13;10.00;99.90
51739;DHT22;37815;52.692;6.226;2023-12-29T21:50:14;10.00;99.90
51739;DHT22;37815;52.692;6.226;2023-12-29T21:55:16;10.00;99.90
51739;DHT22;37815;52.692;6.226;2023-12-29T22:00:19;10.00;99.90
51739;DHT22;37815;52.692;6.226;2023-12-29T22:05:20;10.00;99.90
51739;DHT22;37815;52.692;6.226;2023-12-29T22:10:20;10.00;99.90
51739;DHT22;37815;52.692;6.226;2023-12-29T22:15:21;10.00;99.90
51739;DHT22;37815;52.692;6.226;2023-12-29T22:20:21;10.00;99.90
51739;DHT22;37815;52.692;6.226;2023-12-29T22:25:22;10.00;99.90
51739;DHT22;37815;52.692;6.226;2023-12-29T22:30:22;10.00;99.90
51739;DHT22;37815;52.692;6.226;2023-12-29T22:35:23;10.00;99.90
51739;DHT22;37815;52.692;6.226;2023-12-29T22:40:24;10.00;99.90
51739;DHT22;37815;52.692;6.226;2023-12-29T22:45:24;9.90;99.90
51739;DHT22;37815;52.692;6.226;2023-12-29T22:50:26;9.90;99.90
51739;DHT22;37815;52.692;6.226;2023-12-29T22:55:28;9.90;99.90
51739;DHT22;37815;52.692;6.226;2023-12-29T23:00:28;9.90;99.90
51739;DHT22;37815;52.692;6.226;2023-12-29T23:05:31;9.90;99.90
51739;DHT22;37815;52.692;6.226;2023-12-29T23:10:32;9.90;99.90
51739;DHT22;37815;52.692;6.226;2023-12-29T23:15:33;9.90;99.90
51739;DHT22;37815;52.692;6.226;2023-12-29T23:20:36;9.90;99.90
51739;DHT22;37815;52.692;6.226;2023-12-29T23:25:37;9.90;99.90
51739;DHT22;37815;52.692;6.226;2023-12-29T23:30:37;9.90;99.90
51739;DHT22;37815;52.692;6.226;2023-12-29T23:35:39;9.90;99.90
51739;DHT22;37815;52.692;6.226;2023-12-29T23:40:39;9.80;99.90
51739;DHT22;37815;52.692;6.226;2023-12-29T23:45:40;9.80;99.90
51739;DHT22;37815;52.692;6.226;2023-12-29T23:50:40;9.80;99.90
51739;DHT22;37815;52.692;6.226;2023-12-29T23:55:41;9.80;99.90
